sensor_id;sensor_type;location;lat;lon;timestamp;temperature;humidity
490;DHT22;231;48.120;11.576;2022-08-03T00:01:47;21.60;20.20
490;DHT22;231;48.120;11.576;2022-08-03T00:04:16;21.60;20.10
490;DHT22;231;48.120;11.576;2022-08-03T00:06:44;21.60;19.80
490;DHT22;231;48.120;11.576;2022-08-03T00:09:11;21.60;19.70
490;DHT22;231;48.120;11.576;2022-08-03T00:11:38;21.70;19.70
490;DHT22;231;48.120;11.576;2022-08-03T00:14:07;21.60;19.70
490;DHT22;231;48.120;11.576;2022-08-03T00:16:35;21.60;19.80
490;DHT22;231;48.120;11.576;2022-08-03T00:19:03;21.60;19.90
490;DHT22;231;48.120;11.576;2022-08-03T00:21:32;21.60;19.90
490;DHT22;231;48.120;11.576;2022-08-03T00:23:59;21.60;20.00
490;DHT22;231;48.120;11.576;2022-08-03T00:26:30;21.50;20.00
490;DHT22;231;48.120;11.576;2022-08-03T00:28:58;21.50;20.30
490;DHT22;231;48.120;11.576;2022-08-03T00:31:27;21.40;20.80
490;DHT22;231;48.120;11.576;2022-08-03T00:33:54;21.40;21.00
490;DHT22;231;48.120;11.576;2022-08-03T00:36:21;21.40;21.00
490;DHT22;231;48.120;11.576;2022-08-03T00:38:54;21.50;20.70
490;DHT22;231;48.120;11.576;2022-08-03T00:41:24;21.40;20.40
490;DHT22;231;48.120;11.576;2022-08-03T00:43:53;21.40;20.40
490;DHT22;231;48.120;11.576;2022-08-03T00:46:20;21.40;20.00
490;DHT22;231;48.120;11.576;2022-08-03T00:48:48;21.40;20.00
490;DHT22;231;48.120;11.576;2022-08-03T00:51:15;21.20;21.90
490;DHT22;231;48.120;11.576;2022-08-03T00:53:43;21.00;22.40
490;DHT22;231;48.120;11.576;2022-08-03T00:56:19;20.80;23.10
490;DHT22;231;48.120;11.576;2022-08-03T00:58:46;20.80;23.60
490;DHT22;231;48.120;11.576;2022-08-03T01:01:14;20.80;23.40
490;DHT22;231;48.120;11.576;2022-08-03T01:03:42;20.80;22.80
490;DHT22;231;48.120;11.576;2022-08-03T01:06:15;20.90;22.50
490;DHT22;231;48.120;11.576;2022-08-03T01:08:46;21.00;22.80
490;DHT22;231;48.120;11.576;2022-08-03T01:11:21;21.00;21.80
490;DHT22;231;48.120;11.576;2022-08-03T01:14:08;21.10;21.50
490;DHT22;231;48.120;11.576;2022-08-03T01:16:39;21.10;21.10
490;DHT22;231;48.120;11.576;2022-08-03T01:19:30;21.10;21.10
490;DHT22;231;48.120;11.576;2022-08-03T01:22:07;21.10;20.90
490;DHT22;231;48.120;11.576;2022-08-03T01:24:43;21.10;21.10
490;DHT22;231;48.120;11.576;2022-08-03T01:27:21;21.10;21.10
490;DHT22;231;48.120;11.576;2022-08-03T01:30:01;21.10;20.90
490;DHT22;231;48.120;11.576;2022-08-03T01:32:40;21.00;21.00
490;DHT22;231;48.120;11.576;2022-08-03T01:35:12;21.00;20.90
490;DHT22;231;48.120;11.576;2022-08-03T01:37:44;21.00;21.00
490;DHT22;231;48.120;11.576;2022-08-03T01:40:13;21.00;21.00
490;DHT22;231;48.120;11.576;2022-08-03T01:42:42;21.00;21.30
490;DHT22;231;48.120;11.576;2022-08-03T01:45:14;21.00;21.00
490;DHT22;231;48.120;11.576;2022-08-03T01:47:44;21.00;20.70
490;DHT22;231;48.120;11.576;2022-08-03T01:50:13;21.10;20.60
490;DHT22;231;48.120;11.576;2022-08-03T01:52:41;21.00;20.60
490;DHT22;231;48.120;11.576;2022-08-03T01:55:12;21.00;20.40
490;DHT22;231;48.120;11.576;2022-08-03T01:57:43;20.90;21.00
490;DHT22;231;48.120;11.576;2022-08-03T02:00:15;20.80;21.80
490;DHT22;231;48.120;11.576;2022-08-03T02:02:48;20.70;21.10
490;DHT22;231;48.120;11.576;2022-08-03T02:05:17;20.80;21.00
490;DHT22;231;48.120;11.576;2022-08-03T02:07:47;20.80;20.70
490;DHT22;231;48.120;11.576;2022-08-03T02:10:18;20.80;20.40
490;DHT22;231;48.120;11.576;2022-08-03T02:12:46;20.80;20.20
490;DHT22;231;48.120;11.576;2022-08-03T02:15:18;20.80;20.30
490;DHT22;231;48.120;11.576;2022-08-03T02:17:54;20.70;20.00
490;DHT22;231;48.120;11.576;2022-08-03T02:20:23;20.70;20.10
490;DHT22;231;48.120;11.576;2022-08-03T02:22:52;20.70;19.90
490;DHT22;231;48.120;11.576;2022-08-03T02:25:19;20.80;20.00
490;DHT22;231;48.120;11.576;2022-08-03T02:27:50;20.80;19.70
490;DHT22;231;48.120;11.576;2022-08-03T02:30:22;20.70;19.80
490;DHT22;231;48.120;11.576;2022-08-03T02:32:54;20.70;20.00
490;DHT22;231;48.120;11.576;2022-08-03T02:35:24;20.70;20.10
490;DHT22;231;48.120;11.576;2022-08-03T02:37:56;20.70;20.00
490;DHT22;231;48.120;11.576;2022-08-03T02:40:28;20.70;20.00
490;DHT22;231;48.120;11.576;2022-08-03T02:43:04;20.70;20.00
490;DHT22;231;48.120;11.576;2022-08-03T02:45:53;20.70;20.10
490;DHT22;231;48.120;11.576;2022-08-03T02:48:25;20.70;20.20
490;DHT22;231;48.120;11.576;2022-08-03T02:50:57;20.60;20.30
490;DHT22;231;48.120;11.576;2022-08-03T02:53:27;20.50;20.60
490;DHT22;231;48.120;11.576;2022-08-03T02:55:58;20.50;20.60
490;DHT22;231;48.120;11.576;2022-08-03T02:58:30;20.50;20.70
490;DHT22;231;48.120;11.576;2022-08-03T03:01:08;20.50;20.70
490;DHT22;231;48.120;11.576;2022-08-03T03:03:43;20.50;20.60
490;DHT22;231;48.120;11.576;2022-08-03T03:06:23;20.50;20.70
490;DHT22;231;48.120;11.576;2022-08-03T03:08:51;20.50;20.80
490;DHT22;231;48.120;11.576;2022-08-03T03:11:21;20.50;20.80
490;DHT22;231;48.120;11.576;2022-08-03T03:13:52;20.50;20.80
490;DHT22;231;48.120;11.576;2022-08-03T03:16:22;20.50;20.80
490;DHT22;231;48.120;11.576;2022-08-03T03:19:07;20.40;20.90
490;DHT22;231;48.120;11.576;2022-08-03T03:21:36;20.40;21.00
490;DHT22;231;48.120;11.576;2022-08-03T03:24:07;20.40;21.00
490;DHT22;231;48.120;11.576;2022-08-03T03:26:35;20.50;21.00
490;DHT22;231;48.120;11.576;2022-08-03T03:29:03;20.50;21.10
490;DHT22;231;48.120;11.576;2022-08-03T03:31:35;20.50;21.20
490;DHT22;231;48.120;11.576;2022-08-03T03:34:04;20.40;21.10
490;DHT22;231;48.120;11.576;2022-08-03T03:36:33;20.40;21.10
490;DHT22;231;48.120;11.576;2022-08-03T03:39:07;20.40;21.30
490;DHT22;231;48.120;11.576;2022-08-03T03:41:51;20.40;21.40
490;DHT22;231;48.120;11.576;2022-08-03T03:44:19;20.40;21.40
490;DHT22;231;48.120;11.576;2022-08-03T03:46:48;20.30;21.60
490;DHT22;231;48.120;11.576;2022-08-03T03:49:31;20.30;21.50
490;DHT22;231;48.120;11.576;2022-08-03T03:51:58;20.30;21.60
490;DHT22;231;48.120;11.576;2022-08-03T03:54:37;20.30;21.70
490;DHT22;231;48.120;11.576;2022-08-03T03:57:04;20.30;21.60
490;DHT22;231;48.120;11.576;2022-08-03T03:59:32;20.20;21.50
490;DHT22;231;48.120;11.576;2022-08-03T04:02:00;20.30;21.70
490;DHT22;231;48.120;11.576;2022-08-03T04:04:27;20.30;22.10
490;DHT22;231;48.120;11.576;2022-08-03T04:07:11;20.30;21.70
490;DHT22;231;48.120;11.576;2022-08-03T04:09:57;20.20;21.70
490;DHT22;231;48.120;11.576;2022-08-03T04:12:42;20.20;22.10
490;DHT22;231;48.120;11.576;2022-08-03T04:15:11;20.20;22.30
490;DHT22;231;48.120;11.576;2022-08-03T04:17:41;20.20;22.40
490;DHT22;231;48.120;11.576;2022-08-03T04:20:10;20.20;22.20
490;DHT22;231;48.120;11.576;2022-08-03T04:22:39;20.10;21.90
490;DHT22;231;48.120;11.576;2022-08-03T04:25:09;20.20;21.70
490;DHT22;231;48.120;11.576;2022-08-03T04:27:40;20.20;21.70
490;DHT22;231;48.120;11.576;2022-08-03T04:30:11;20.10;21.30
490;DHT22;231;48.120;11.576;2022-08-03T04:32:41;20.10;21.40
490;DHT22;231;48.120;11.576;2022-08-03T04:35:11;20.20;21.60
490;DHT22;231;48.120;11.576;2022-08-03T04:37:40;20.20;21.10
490;DHT22;231;48.120;11.576;2022-08-03T04:40:13;20.20;21.20
490;DHT22;231;48.120;11.576;2022-08-03T04:42:42;20.20;21.20
490;DHT22;231;48.120;11.576;2022-08-03T04:45:11;20.30;21.20
490;DHT22;231;48.120;11.576;2022-08-03T04:47:41;20.30;21.10
490;DHT22;231;48.120;11.576;2022-08-03T04:50:11;20.20;21.70
490;DHT22;231;48.120;11.576;2022-08-03T04:52:39;20.20;21.30
490;DHT22;231;48.120;11.576;2022-08-03T04:55:07;20.20;21.40
490;DHT22;231;48.120;11.576;2022-08-03T04:57:34;20.20;21.50
490;DHT22;231;48.120;11.576;2022-08-03T05:00:02;20.20;21.10
490;DHT22;231;48.120;11.576;2022-08-03T05:02:30;20.20;21.10
490;DHT22;231;48.120;11.576;2022-08-03T05:04:59;20.30;21.10
490;DHT22;231;48.120;11.576;2022-08-03T05:07:26;20.30;21.00
490;DHT22;231;48.120;11.576;2022-08-03T05:09:54;20.30;20.80
490;DHT22;231;48.120;11.576;2022-08-03T05:12:24;20.40;20.60
490;DHT22;231;48.120;11.576;2022-08-03T05:14:50;20.40;20.30
490;DHT22;231;48.120;11.576;2022-08-03T05:17:18;20.40;20.20
490;DHT22;231;48.120;11.576;2022-08-03T05:19:45;20.50;20.30
490;DHT22;231;48.120;11.576;2022-08-03T05:22:13;20.50;19.80
490;DHT22;231;48.120;11.576;2022-08-03T05:24:43;20.50;19.70
490;DHT22;231;48.120;11.576;2022-08-03T05:27:10;20.50;19.70
490;DHT22;231;48.120;11.576;2022-08-03T05:29:43;20.60;19.70
490;DHT22;231;48.120;11.576;2022-08-03T05:32:10;20.60;19.90
490;DHT22;231;48.120;11.576;2022-08-03T05:34:37;20.60;19.70
490;DHT22;231;48.120;11.576;2022-08-03T05:37:06;20.60;19.70
490;DHT22;231;48.120;11.576;2022-08-03T05:39:39;20.70;19.90
490;DHT22;231;48.120;11.576;2022-08-03T05:42:06;20.70;19.70
490;DHT22;231;48.120;11.576;2022-08-03T05:44:33;20.90;19.50
490;DHT22;231;48.120;11.576;2022-08-03T05:47:03;20.90;19.50
490;DHT22;231;48.120;11.576;2022-08-03T05:49:30;20.90;19.40
490;DHT22;231;48.120;11.576;2022-08-03T05:51:57;20.90;19.00
490;DHT22;231;48.120;11.576;2022-08-03T05:54:25;21.00;18.60
490;DHT22;231;48.120;11.576;2022-08-03T05:56:53;21.10;18.40
490;DHT22;231;48.120;11.576;2022-08-03T05:59:20;21.10;18.50
490;DHT22;231;48.120;11.576;2022-08-03T06:01:48;21.20;18.40
490;DHT22;231;48.120;11.576;2022-08-03T06:04:16;21.30;18.10
490;DHT22;231;48.120;11.576;2022-08-03T06:06:44;21.30;17.70
490;DHT22;231;48.120;11.576;2022-08-03T06:09:16;21.30;17.90
490;DHT22;231;48.120;11.576;2022-08-03T06:11:43;21.50;18.00
490;DHT22;231;48.120;11.576;2022-08-03T06:14:11;21.60;18.30
490;DHT22;231;48.120;11.576;2022-08-03T06:16:40;21.70;18.20
490;DHT22;231;48.120;11.576;2022-08-03T06:19:07;21.70;18.00
490;DHT22;231;48.120;11.576;2022-08-03T06:21:34;21.80;16.90
490;DHT22;231;48.120;11.576;2022-08-03T06:24:03;21.80;16.80
490;DHT22;231;48.120;11.576;2022-08-03T06:26:31;21.90;16.60
490;DHT22;231;48.120;11.576;2022-08-03T06:29:00;22.00;17.50
490;DHT22;231;48.120;11.576;2022-08-03T06:31:29;22.10;17.50
490;DHT22;231;48.120;11.576;2022-08-03T06:33:57;22.20;17.20
490;DHT22;231;48.120;11.576;2022-08-03T06:36:24;22.20;16.10
490;DHT22;231;48.120;11.576;2022-08-03T06:38:56;22.30;15.80
490;DHT22;231;48.120;11.576;2022-08-03T06:41:24;22.40;16.40
490;DHT22;231;48.120;11.576;2022-08-03T06:43:52;22.50;16.10
490;DHT22;231;48.120;11.576;2022-08-03T06:46:20;22.60;16.20
490;DHT22;231;48.120;11.576;2022-08-03T06:48:49;22.70;15.80
490;DHT22;231;48.120;11.576;2022-08-03T06:51:16;22.80;15.60
490;DHT22;231;48.120;11.576;2022-08-03T06:53:43;22.90;15.40
490;DHT22;231;48.120;11.576;2022-08-03T06:56:18;22.90;15.00
490;DHT22;231;48.120;11.576;2022-08-03T06:58:46;23.00;14.10
490;DHT22;231;48.120;11.576;2022-08-03T07:01:13;23.00;12.80
490;DHT22;231;48.120;11.576;2022-08-03T07:03:40;23.10;12.80
490;DHT22;231;48.120;11.576;2022-08-03T07:06:09;23.20;12.30
490;DHT22;231;48.120;11.576;2022-08-03T07:08:36;23.20;11.90
490;DHT22;231;48.120;11.576;2022-08-03T07:11:06;23.30;12.00
490;DHT22;231;48.120;11.576;2022-08-03T07:13:37;23.50;11.80
490;DHT22;231;48.120;11.576;2022-08-03T07:16:05;23.50;11.10
490;DHT22;231;48.120;11.576;2022-08-03T07:18:32;23.50;11.10
490;DHT22;231;48.120;11.576;2022-08-03T07:21:00;23.50;10.80
490;DHT22;231;48.120;11.576;2022-08-03T07:23:28;23.60;11.00
490;DHT22;231;48.120;11.576;2022-08-03T07:25:56;23.80;11.00
490;DHT22;231;48.120;11.576;2022-08-03T07:28:23;24.00;11.00
490;DHT22;231;48.120;11.576;2022-08-03T07:30:53;24.40;10.60
490;DHT22;231;48.120;11.576;2022-08-03T07:33:20;25.10;8.00
490;DHT22;231;48.120;11.576;2022-08-03T07:35:47;26.00;6.50
490;DHT22;231;48.120;11.576;2022-08-03T07:38:15;26.80;4.30
490;DHT22;231;48.120;11.576;2022-08-03T07:40:43;27.60;3.70
490;DHT22;231;48.120;11.576;2022-08-03T07:43:10;28.20;2.00
490;DHT22;231;48.120;11.576;2022-08-03T07:45:38;28.30;1.00
490;DHT22;231;48.120;11.576;2022-08-03T07:48:06;28.80;1.00
490;DHT22;231;48.120;11.576;2022-08-03T07:50:34;28.90;1.00
490;DHT22;231;48.120;11.576;2022-08-03T07:53:15;29.00;1.00
490;DHT22;231;48.120;11.576;2022-08-03T07:55:45;29.50;1.00
490;DHT22;231;48.120;11.576;2022-08-03T07:58:14;29.50;1.00
490;DHT22;231;48.120;11.576;2022-08-03T08:00:42;29.40;1.00
490;DHT22;231;48.120;11.576;2022-08-03T08:06:01;30.00;1.00
490;DHT22;231;48.120;11.576;2022-08-03T08:08:28;30.40;1.00
490;DHT22;231;48.120;11.576;2022-08-03T08:10:57;30.50;1.00
490;DHT22;231;48.120;11.576;2022-08-03T08:13:29;30.50;1.00
490;DHT22;231;48.120;11.576;2022-08-03T08:15:58;30.60;1.00
490;DHT22;231;48.120;11.576;2022-08-03T08:18:26;30.80;1.00
490;DHT22;231;48.120;11.576;2022-08-03T08:20:54;31.10;1.00
490;DHT22;231;48.120;11.576;2022-08-03T08:23:21;31.00;1.00
490;DHT22;231;48.120;11.576;2022-08-03T08:25:49;31.20;1.00
490;DHT22;231;48.120;11.576;2022-08-03T08:28:19;31.30;1.00
490;DHT22;231;48.120;11.576;2022-08-03T08:30:47;31.50;1.00
490;DHT22;231;48.120;11.576;2022-08-03T08:33:17;30.90;1.00
490;DHT22;231;48.120;11.576;2022-08-03T08:35:46;30.90;1.00
490;DHT22;231;48.120;11.576;2022-08-03T08:38:13;31.10;1.00
490;DHT22;231;48.120;11.576;2022-08-03T08:40:41;31.00;1.00
490;DHT22;231;48.120;11.576;2022-08-03T08:43:08;31.10;1.00
490;DHT22;231;48.120;11.576;2022-08-03T08:45:36;31.00;1.00
490;DHT22;231;48.120;11.576;2022-08-03T08:48:06;30.90;1.00
490;DHT22;231;48.120;11.576;2022-08-03T08:50:36;30.90;1.00
490;DHT22;231;48.120;11.576;2022-08-03T08:53:06;30.90;1.00
490;DHT22;231;48.120;11.576;2022-08-03T08:55:34;30.80;1.00
490;DHT22;231;48.120;11.576;2022-08-03T08:58:04;30.70;1.00
490;DHT22;231;48.120;11.576;2022-08-03T09:00:31;30.70;1.00
490;DHT22;231;48.120;11.576;2022-08-03T09:03:00;30.60;1.00
490;DHT22;231;48.120;11.576;2022-08-03T09:05:41;30.70;1.00
490;DHT22;231;48.120;11.576;2022-08-03T09:08:08;30.60;1.00
490;DHT22;231;48.120;11.576;2022-08-03T09:10:36;30.50;1.00
490;DHT22;231;48.120;11.576;2022-08-03T09:13:03;30.30;1.00
490;DHT22;231;48.120;11.576;2022-08-03T09:15:31;30.30;1.00
490;DHT22;231;48.120;11.576;2022-08-03T09:18:02;30.40;1.00
490;DHT22;231;48.120;11.576;2022-08-03T09:20:31;30.30;1.00
490;DHT22;231;48.120;11.576;2022-08-03T09:23:00;30.30;1.00
490;DHT22;231;48.120;11.576;2022-08-03T09:25:31;30.50;1.00
490;DHT22;231;48.120;11.576;2022-08-03T09:28:07;30.50;1.00
490;DHT22;231;48.120;11.576;2022-08-03T09:30:36;30.50;1.00
490;DHT22;231;48.120;11.576;2022-08-03T09:33:06;30.40;1.00
490;DHT22;231;48.120;11.576;2022-08-03T09:35:40;30.40;1.00
490;DHT22;231;48.120;11.576;2022-08-03T09:38:10;30.40;1.00
490;DHT22;231;48.120;11.576;2022-08-03T09:40:39;30.40;1.00
490;DHT22;231;48.120;11.576;2022-08-03T09:43:10;30.50;1.00
490;DHT22;231;48.120;11.576;2022-08-03T09:45:38;30.40;1.00
490;DHT22;231;48.120;11.576;2022-08-03T09:48:22;30.50;1.00
490;DHT22;231;48.120;11.576;2022-08-03T09:50:51;30.50;1.00
490;DHT22;231;48.120;11.576;2022-08-03T09:53:18;30.50;1.00
490;DHT22;231;48.120;11.576;2022-08-03T09:55:53;30.50;1.00
490;DHT22;231;48.120;11.576;2022-08-03T09:58:21;30.50;1.00
490;DHT22;231;48.120;11.576;2022-08-03T10:00:58;30.20;1.00
490;DHT22;231;48.120;11.576;2022-08-03T10:03:31;30.30;1.00
490;DHT22;231;48.120;11.576;2022-08-03T10:06:13;30.20;1.00
490;DHT22;231;48.120;11.576;2022-08-03T10:08:42;30.20;1.00
490;DHT22;231;48.120;11.576;2022-08-03T10:11:09;30.30;1.00
490;DHT22;231;48.120;11.576;2022-08-03T10:13:39;30.30;1.00
490;DHT22;231;48.120;11.576;2022-08-03T10:16:06;30.20;1.00
490;DHT22;231;48.120;11.576;2022-08-03T10:18:35;30.30;1.00
490;DHT22;231;48.120;11.576;2022-08-03T10:21:03;30.30;1.00
490;DHT22;231;48.120;11.576;2022-08-03T10:23:35;30.30;1.00
490;DHT22;231;48.120;11.576;2022-08-03T10:26:07;30.20;1.00
490;DHT22;231;48.120;11.576;2022-08-03T10:28:46;30.20;1.00
490;DHT22;231;48.120;11.576;2022-08-03T10:31:15;30.40;1.00
490;DHT22;231;48.120;11.576;2022-08-03T10:33:51;30.40;1.00
490;DHT22;231;48.120;11.576;2022-08-03T10:36:23;30.30;1.00
490;DHT22;231;48.120;11.576;2022-08-03T10:38:53;30.30;1.00
490;DHT22;231;48.120;11.576;2022-08-03T10:41:32;30.20;1.00
490;DHT22;231;48.120;11.576;2022-08-03T10:44:04;30.00;1.00
490;DHT22;231;48.120;11.576;2022-08-03T10:46:33;30.10;1.00
490;DHT22;231;48.120;11.576;2022-08-03T10:49:04;30.00;1.00
490;DHT22;231;48.120;11.576;2022-08-03T10:51:32;30.10;1.00
490;DHT22;231;48.120;11.576;2022-08-03T10:53:59;30.20;1.00
490;DHT22;231;48.120;11.576;2022-08-03T10:56:40;30.00;1.00
490;DHT22;231;48.120;11.576;2022-08-03T10:59:58;29.90;1.00
490;DHT22;231;48.120;11.576;2022-08-03T11:03:03;29.80;1.00
490;DHT22;231;48.120;11.576;2022-08-03T11:05:39;29.70;1.00
490;DHT22;231;48.120;11.576;2022-08-03T11:08:28;29.60;1.00
490;DHT22;231;48.120;11.576;2022-08-03T11:10:58;29.60;1.00
490;DHT22;231;48.120;11.576;2022-08-03T11:13:28;29.60;1.00
490;DHT22;231;48.120;11.576;2022-08-03T11:16:02;29.70;1.00
490;DHT22;231;48.120;11.576;2022-08-03T11:18:55;29.80;1.00
490;DHT22;231;48.120;11.576;2022-08-03T11:21:56;29.80;1.00
490;DHT22;231;48.120;11.576;2022-08-03T11:27:31;30.00;1.00
490;DHT22;231;48.120;11.576;2022-08-03T11:30:00;29.90;1.00
490;DHT22;231;48.120;11.576;2022-08-03T11:32:51;29.80;1.00
490;DHT22;231;48.120;11.576;2022-08-03T11:35:20;29.60;1.00
490;DHT22;231;48.120;11.576;2022-08-03T11:38:09;29.50;1.00
490;DHT22;231;48.120;11.576;2022-08-03T11:40:41;29.50;1.00
490;DHT22;231;48.120;11.576;2022-08-03T11:43:09;29.50;1.00
490;DHT22;231;48.120;11.576;2022-08-03T11:46:00;29.70;1.00
490;DHT22;231;48.120;11.576;2022-08-03T11:48:34;29.90;1.00
490;DHT22;231;48.120;11.576;2022-08-03T11:51:01;29.80;1.00
490;DHT22;231;48.120;11.576;2022-08-03T11:53:33;29.80;1.00
490;DHT22;231;48.120;11.576;2022-08-03T11:56:02;29.90;1.00
490;DHT22;231;48.120;11.576;2022-08-03T11:58:30;30.00;1.00
490;DHT22;231;48.120;11.576;2022-08-03T12:01:03;30.20;1.00
490;DHT22;231;48.120;11.576;2022-08-03T12:03:32;30.20;1.00
490;DHT22;231;48.120;11.576;2022-08-03T12:06:00;30.40;1.00
490;DHT22;231;48.120;11.576;2022-08-03T12:08:31;30.20;1.00
490;DHT22;231;48.120;11.576;2022-08-03T12:11:02;30.00;1.00
490;DHT22;231;48.120;11.576;2022-08-03T12:13:39;30.20;1.00
490;DHT22;231;48.120;11.576;2022-08-03T12:16:07;30.30;1.00
490;DHT22;231;48.120;11.576;2022-08-03T12:18:35;30.40;1.00
490;DHT22;231;48.120;11.576;2022-08-03T12:21:05;30.40;1.00
490;DHT22;231;48.120;11.576;2022-08-03T12:23:35;30.50;1.00
490;DHT22;231;48.120;11.576;2022-08-03T12:26:20;30.70;1.00
490;DHT22;231;48.120;11.576;2022-08-03T12:28:50;30.70;1.00
490;DHT22;231;48.120;11.576;2022-08-03T12:31:17;30.70;1.00
490;DHT22;231;48.120;11.576;2022-08-03T12:33:58;30.80;1.00
490;DHT22;231;48.120;11.576;2022-08-03T12:36:27;31.00;1.00
490;DHT22;231;48.120;11.576;2022-08-03T12:39:05;30.90;1.00
490;DHT22;231;48.120;11.576;2022-08-03T12:41:38;31.00;1.00
490;DHT22;231;48.120;11.576;2022-08-03T12:44:07;31.00;1.00
490;DHT22;231;48.120;11.576;2022-08-03T12:46:38;31.20;1.00
490;DHT22;231;48.120;11.576;2022-08-03T12:49:07;31.30;1.00
490;DHT22;231;48.120;11.576;2022-08-03T12:51:42;31.50;1.00
490;DHT22;231;48.120;11.576;2022-08-03T12:54:23;31.20;1.00
490;DHT22;231;48.120;11.576;2022-08-03T12:57:02;31.00;1.00
490;DHT22;231;48.120;11.576;2022-08-03T12:59:30;31.00;1.00
490;DHT22;231;48.120;11.576;2022-08-03T13:02:00;31.10;1.00
490;DHT22;231;48.120;11.576;2022-08-03T13:04:28;31.40;1.00
490;DHT22;231;48.120;11.576;2022-08-03T13:06:59;31.50;1.00
490;DHT22;231;48.120;11.576;2022-08-03T13:09:28;31.30;1.00
490;DHT22;231;48.120;11.576;2022-08-03T13:12:08;31.10;1.00
490;DHT22;231;48.120;11.576;2022-08-03T13:14:36;31.30;1.00
490;DHT22;231;48.120;11.576;2022-08-03T13:17:04;31.40;1.00
490;DHT22;231;48.120;11.576;2022-08-03T13:19:33;31.60;1.00
490;DHT22;231;48.120;11.576;2022-08-03T13:22:09;31.70;1.00
490;DHT22;231;48.120;11.576;2022-08-03T13:24:36;31.90;1.00
490;DHT22;231;48.120;11.576;2022-08-03T13:27:03;31.70;1.00
490;DHT22;231;48.120;11.576;2022-08-03T13:29:34;31.80;1.00
490;DHT22;231;48.120;11.576;2022-08-03T13:32:02;32.10;1.00
490;DHT22;231;48.120;11.576;2022-08-03T13:34:30;32.20;1.00
490;DHT22;231;48.120;11.576;2022-08-03T13:36:58;32.20;1.00
490;DHT22;231;48.120;11.576;2022-08-03T13:39:33;32.40;1.00
490;DHT22;231;48.120;11.576;2022-08-03T13:42:00;32.40;1.00
490;DHT22;231;48.120;11.576;2022-08-03T13:44:31;32.50;1.00
490;DHT22;231;48.120;11.576;2022-08-03T13:47:00;32.50;1.00
490;DHT22;231;48.120;11.576;2022-08-03T13:49:27;32.40;1.00
490;DHT22;231;48.120;11.576;2022-08-03T13:51:55;32.70;1.00
490;DHT22;231;48.120;11.576;2022-08-03T13:54:25;32.70;1.00
490;DHT22;231;48.120;11.576;2022-08-03T13:56:52;32.50;1.00
490;DHT22;231;48.120;11.576;2022-08-03T13:59:19;32.60;1.00
490;DHT22;231;48.120;11.576;2022-08-03T14:02:02;32.70;1.00
490;DHT22;231;48.120;11.576;2022-08-03T14:04:41;32.90;1.00
490;DHT22;231;48.120;11.576;2022-08-03T14:07:08;33.10;1.00
490;DHT22;231;48.120;11.576;2022-08-03T14:09:40;33.10;1.00
490;DHT22;231;48.120;11.576;2022-08-03T14:12:28;33.20;1.00
490;DHT22;231;48.120;11.576;2022-08-03T14:14:57;33.30;1.00
490;DHT22;231;48.120;11.576;2022-08-03T14:17:39;33.20;1.00
490;DHT22;231;48.120;11.576;2022-08-03T14:20:09;33.30;1.00
490;DHT22;231;48.120;11.576;2022-08-03T14:22:44;33.40;1.00
490;DHT22;231;48.120;11.576;2022-08-03T14:25:19;33.20;1.00
490;DHT22;231;48.120;11.576;2022-08-03T14:27:47;32.90;1.00
490;DHT22;231;48.120;11.576;2022-08-03T14:30:15;33.00;1.00
490;DHT22;231;48.120;11.576;2022-08-03T14:32:47;33.10;1.00
490;DHT22;231;48.120;11.576;2022-08-03T14:35:17;33.10;1.00
490;DHT22;231;48.120;11.576;2022-08-03T14:37:45;33.10;1.00
490;DHT22;231;48.120;11.576;2022-08-03T14:40:15;33.00;1.00
490;DHT22;231;48.120;11.576;2022-08-03T14:42:42;33.10;1.00
490;DHT22;231;48.120;11.576;2022-08-03T14:45:13;33.00;1.00
490;DHT22;231;48.120;11.576;2022-08-03T14:47:40;32.80;1.00
490;DHT22;231;48.120;11.576;2022-08-03T14:50:14;32.70;1.00
490;DHT22;231;48.120;11.576;2022-08-03T14:52:42;32.90;1.00
490;DHT22;231;48.120;11.576;2022-08-03T14:55:10;32.90;1.00
490;DHT22;231;48.120;11.576;2022-08-03T14:57:37;32.90;1.00
490;DHT22;231;48.120;11.576;2022-08-03T15:00:07;32.80;1.00
490;DHT22;231;48.120;11.576;2022-08-03T15:02:39;33.00;1.00
490;DHT22;231;48.120;11.576;2022-08-03T15:05:07;33.10;1.00
490;DHT22;231;48.120;11.576;2022-08-03T15:07:38;33.10;1.00
490;DHT22;231;48.120;11.576;2022-08-03T15:10:05;33.20;1.00
490;DHT22;231;48.120;11.576;2022-08-03T15:12:33;33.00;1.00
490;DHT22;231;48.120;11.576;2022-08-03T15:14:59;33.00;1.00
490;DHT22;231;48.120;11.576;2022-08-03T15:17:26;33.10;1.00
490;DHT22;231;48.120;11.576;2022-08-03T15:19:53;33.20;1.00
490;DHT22;231;48.120;11.576;2022-08-03T15:22:20;33.20;1.00
490;DHT22;231;48.120;11.576;2022-08-03T15:24:49;33.10;1.00
490;DHT22;231;48.120;11.576;2022-08-03T15:27:15;33.10;1.00
490;DHT22;231;48.120;11.576;2022-08-03T15:29:42;32.90;1.00
490;DHT22;231;48.120;11.576;2022-08-03T15:32:09;33.00;1.00
490;DHT22;231;48.120;11.576;2022-08-03T15:34:37;32.90;1.00
490;DHT22;231;48.120;11.576;2022-08-03T15:37:07;32.90;1.00
490;DHT22;231;48.120;11.576;2022-08-03T15:39:36;32.90;1.00
490;DHT22;231;48.120;11.576;2022-08-03T15:42:04;32.90;1.00
490;DHT22;231;48.120;11.576;2022-08-03T15:44:31;33.00;1.00
490;DHT22;231;48.120;11.576;2022-08-03T15:46:58;33.10;1.00
490;DHT22;231;48.120;11.576;2022-08-03T15:49:25;33.10;1.00
490;DHT22;231;48.120;11.576;2022-08-03T15:51:52;33.00;1.00
490;DHT22;231;48.120;11.576;2022-08-03T15:54:19;33.00;1.00
490;DHT22;231;48.120;11.576;2022-08-03T15:56:46;32.90;1.00
490;DHT22;231;48.120;11.576;2022-08-03T15:59:14;32.90;1.00
490;DHT22;231;48.120;11.576;2022-08-03T16:01:44;32.60;1.00
490;DHT22;231;48.120;11.576;2022-08-03T16:04:13;32.60;1.00
490;DHT22;231;48.120;11.576;2022-08-03T16:06:41;32.80;1.00
490;DHT22;231;48.120;11.576;2022-08-03T16:09:08;32.90;1.00
490;DHT22;231;48.120;11.576;2022-08-03T16:11:37;33.00;1.00
490;DHT22;231;48.120;11.576;2022-08-03T16:14:05;32.80;1.00
490;DHT22;231;48.120;11.576;2022-08-03T16:16:34;32.40;1.00
490;DHT22;231;48.120;11.576;2022-08-03T16:19:04;32.20;1.00
490;DHT22;231;48.120;11.576;2022-08-03T16:21:31;32.20;1.00
490;DHT22;231;48.120;11.576;2022-08-03T16:23:59;32.20;1.00
490;DHT22;231;48.120;11.576;2022-08-03T16:26:28;32.10;1.00
490;DHT22;231;48.120;11.576;2022-08-03T16:28:56;32.10;1.00
490;DHT22;231;48.120;11.576;2022-08-03T16:31:23;32.00;1.00
490;DHT22;231;48.120;11.576;2022-08-03T16:33:55;32.10;1.00
490;DHT22;231;48.120;11.576;2022-08-03T16:36:23;31.90;1.00
490;DHT22;231;48.120;11.576;2022-08-03T16:38:50;31.80;1.00
490;DHT22;231;48.120;11.576;2022-08-03T16:41:17;31.80;1.00
490;DHT22;231;48.120;11.576;2022-08-03T16:43:43;31.80;1.00
490;DHT22;231;48.120;11.576;2022-08-03T16:46:12;31.80;1.00
490;DHT22;231;48.120;11.576;2022-08-03T16:48:39;31.70;1.00
490;DHT22;231;48.120;11.576;2022-08-03T16:51:09;31.60;1.00
490;DHT22;231;48.120;11.576;2022-08-03T16:53:36;31.60;1.00
490;DHT22;231;48.120;11.576;2022-08-03T16:56:04;31.50;1.00